createdAt,value
2016-06-01T00:01:39.447Z,20.62
2016-06-01T00:02:25.809Z,20.68
2016-06-01T00:07:27.291Z,20.66
2016-06-01T00:08:39.622Z,20.53
2016-06-01T00:10:25.602Z,20.65
2016-06-01T00:12:39.503Z,20.54
2016-06-01T00:13:39.299Z,20.5
2016-06-01T00:14:39.374Z,20.56
2016-06-01T00:15:39.233Z,20.54
2016-06-01T00:16:39.260Z,20.58
2016-06-01T00:18:39.566Z,20.56
2016-06-01T00:19:27.438Z,20.58
2016-06-01T00:20:39.243Z,20.5
2016-06-01T00:22:25.583Z,20.49
2016-06-01T00:25:39.208Z,20.47
2016-06-01T00:27:27.560Z,20.41
2016-06-01T00:28:26.861Z,20.49
2016-06-01T00:29:25.990Z,20.35
2016-06-01T00:30:25.352Z,20.41
2016-06-01T00:31:27.324Z,20.41
2016-06-01T00:32:26.483Z,20.42
2016-06-01T00:33:52.833Z,20.38
2016-06-01T00:35:39.820Z,20.39
2016-06-01T00:36:25.854Z,20.31
2016-06-01T00:40:41.865Z,20.34
2016-06-01T00:41:28.509Z,20.3
2016-06-01T00:42:25.495Z,20.28
2016-06-01T00:43:38.827Z,20.33
2016-06-01T00:44:38.860Z,20.27
2016-06-01T00:45:39.660Z,20.3
2016-06-01T00:46:25.022Z,20.3
2016-06-01T00:47:39.040Z,20.27
2016-06-01T00:48:25.355Z,20.25
2016-06-01T00:49:27.921Z,20.31
2016-06-01T00:50:25.314Z,20.3
2016-06-01T00:51:26.738Z,20.28
2016-06-01T00:52:39.304Z,20.18
2016-06-01T00:53:25.619Z,20.21
2016-06-01T00:54:25.262Z,20.16
2016-06-01T00:55:38.640Z,20.27
2016-06-01T00:57:24.942Z,20.23
2016-06-01T00:58:25.242Z,20.16
2016-06-01T00:59:25.166Z,20.24
2016-06-01T01:00:24.825Z,20.2
2016-06-01T01:01:38.671Z,20.23
2016-06-01T01:02:24.909Z,20.23
2016-06-01T01:03:24.912Z,20.12
2016-06-01T01:04:25.351Z,20.13
2016-06-01T01:05:31.995Z,20.1
2016-06-01T01:07:24.641Z,20.24
2016-06-01T01:08:25.519Z,20.16
2016-06-01T01:09:24.647Z,20.12
2016-06-01T01:11:39.464Z,20.1
2016-06-01T01:13:38.219Z,20.13
2016-06-01T01:14:24.785Z,20.18
2016-06-01T01:17:24.949Z,20.12
2016-06-01T01:18:38.217Z,20.12
2016-06-01T01:19:24.376Z,20.15
2016-06-01T01:20:38.082Z,20.16
2016-06-01T01:21:24.960Z,20.16
2016-06-01T01:22:38.822Z,20.1
2016-06-01T01:23:38.574Z,20.16
2016-06-01T01:24:38.202Z,20.12
2016-06-01T01:25:37.971Z,20.08
2016-06-01T01:26:38.395Z,20.1
2016-06-01T01:27:37.976Z,20
2016-06-01T01:28:24.198Z,20.09
2016-06-01T01:30:24.140Z,20.15
2016-06-01T01:31:24.876Z,20.15
2016-06-01T01:32:24.395Z,20.09
2016-06-01T01:33:24.851Z,20.12
2016-06-01T01:34:51.528Z,20.12
2016-06-01T01:37:25.409Z,20.1
2016-06-01T01:38:25.240Z,20.05
2016-06-01T01:39:25.898Z,20.09
2016-06-01T01:42:24.610Z,20.09
2016-06-01T01:44:24.366Z,20.1
2016-06-01T01:45:24.696Z,20.05
2016-06-01T01:46:51.467Z,20.05
2016-06-01T01:47:38.342Z,20.13
2016-06-01T01:48:25.158Z,20.08
2016-06-01T01:49:51.241Z,20.03
2016-06-01T01:50:24.022Z,20.06
2016-06-01T01:51:24.353Z,19.97
2016-06-01T01:52:23.902Z,20.02
2016-06-01T01:53:37.655Z,20.09
2016-06-01T01:54:43.735Z,20
2016-06-01T01:55:24.957Z,19.97
2016-06-01T01:56:23.679Z,20.05
2016-06-01T01:57:23.494Z,20.02
2016-06-01T01:58:37.371Z,20.06
2016-06-01T01:59:23.546Z,20
2016-06-01T02:00:24.112Z,20
2016-06-01T02:01:37.536Z,20
2016-06-01T02:02:23.601Z,20.05
2016-06-01T02:04:47.341Z,20.06
2016-06-01T02:05:34.281Z,20.03
2016-06-01T02:06:47.518Z,20.05
2016-06-01T02:07:33.709Z,20
2016-06-01T02:09:32.853Z,19.98
2016-06-01T02:10:33.889Z,20
2016-06-01T02:11:32.719Z,20
2016-06-01T02:12:34.144Z,20.06
2016-06-01T02:13:32.881Z,20.06
2016-06-01T02:14:33.399Z,19.97
2016-06-01T02:15:33.402Z,20.02
2016-06-01T02:16:33.061Z,20.03
2016-06-01T02:17:33.845Z,20.05
2016-06-01T02:18:32.832Z,19.97
2016-06-01T02:19:33.303Z,19.98
2016-06-01T02:20:33.008Z,20
2016-06-01T02:24:33.692Z,19.97
2016-06-01T02:25:32.522Z,20.05
2016-06-01T02:26:32.524Z,20.03
2016-06-01T02:27:46.231Z,19.97
2016-06-01T02:28:32.968Z,20.05
2016-06-01T02:29:32.814Z,19.94
2016-06-01T02:31:46.930Z,20
2016-06-01T02:32:32.837Z,20
2016-06-01T02:33:33.466Z,20.05
2016-06-01T02:34:35.718Z,19.98
2016-06-01T02:35:32.784Z,20.02
2016-06-01T02:37:46.398Z,19.97
2016-06-01T02:38:32.338Z,19.98
2016-06-01T02:39:33.278Z,20.02
2016-06-01T02:40:46.375Z,20.02
2016-06-01T02:41:32.097Z,19.95
2016-06-01T02:42:46.490Z,20
2016-06-01T02:45:46.310Z,19.98
2016-06-01T02:47:44.691Z,20.03
2016-06-01T02:48:58.572Z,19.95
2016-06-01T02:49:58.214Z,20.02
2016-06-01T02:50:58.326Z,20.03
2016-06-01T02:52:58.583Z,19.91
2016-06-01T02:53:45.020Z,20.02
2016-06-01T02:54:45.382Z,19.95
2016-06-01T02:55:44.775Z,19.93
2016-06-01T02:56:45.606Z,20.02
2016-06-01T02:57:58.126Z,20
2016-06-01T02:58:44.407Z,20
2016-06-01T02:59:58.007Z,19.95
2016-06-01T03:01:12.182Z,19.95
2016-06-01T03:01:58.435Z,19.88
2016-06-01T03:02:44.622Z,20
2016-06-01T03:04:00.251Z,19.98
2016-06-01T03:04:45.923Z,19.95
2016-06-01T03:07:44.792Z,19.88
2016-06-01T03:08:44.763Z,19.98
2016-06-01T03:09:46.765Z,19.98
2016-06-01T03:10:44.378Z,19.97
2016-06-01T03:12:44.165Z,19.87
2016-06-01T03:14:50.358Z,19.98
2016-06-01T03:15:44.344Z,19.9
2016-06-01T03:16:44.425Z,19.9
2016-06-01T03:17:50.709Z,19.9
2016-06-01T03:18:45.040Z,19.91
2016-06-01T03:19:57.639Z,19.95
2016-06-01T03:20:58.517Z,19.88
2016-06-01T03:21:57.691Z,19.94
2016-06-01T03:22:57.757Z,19.93
2016-06-01T03:23:46.132Z,19.91
2016-06-01T03:25:54.186Z,19.94
2016-06-01T03:26:55.064Z,19.9
2016-06-01T03:28:07.864Z,19.94
2016-06-01T03:29:07.835Z,19.94
2016-06-01T03:31:54.641Z,19.88
2016-06-01T03:33:07.737Z,20.03
2016-06-01T03:34:07.692Z,19.95
2016-06-01T03:36:08.292Z,19.88
2016-06-01T03:36:53.935Z,19.97
2016-06-01T03:38:07.641Z,20
2016-06-01T03:38:53.643Z,19.87
2016-06-01T03:39:54.770Z,19.98
2016-06-01T03:40:53.914Z,19.98
2016-06-01T03:41:53.839Z,19.88
2016-06-01T03:42:53.795Z,19.9
2016-06-01T03:43:54.048Z,19.94
2016-06-01T03:46:07.271Z,19.9
2016-06-01T03:46:53.774Z,19.95
2016-06-01T03:49:53.891Z,19.88
2016-06-01T03:50:55.114Z,20.03
2016-06-01T03:51:53.630Z,19.9
2016-06-01T03:52:53.666Z,20
2016-06-01T03:54:07.669Z,19.93
2016-06-01T03:54:53.608Z,20
2016-06-01T03:56:07.314Z,19.97
2016-06-01T03:57:07.177Z,20
2016-06-01T03:57:53.507Z,19.97
2016-06-01T03:58:53.744Z,19.97
2016-06-01T03:59:53.887Z,20.02
2016-06-01T04:00:54.187Z,19.98
2016-06-01T04:01:53.471Z,19.97
2016-06-01T04:02:54.865Z,20.06
2016-06-01T04:03:54.055Z,20.03
2016-06-01T04:04:53.478Z,19.98
2016-06-01T04:05:54.029Z,20.03
2016-06-01T04:06:53.813Z,20.03
2016-06-01T04:07:53.282Z,20.05
2016-06-01T04:08:54.427Z,19.98
2016-06-01T04:09:53.555Z,19.98
2016-06-01T04:10:54.167Z,20.02
2016-06-01T04:11:53.276Z,20.02
2016-06-01T04:13:06.938Z,20.03
2016-06-01T04:14:59.318Z,20.03
2016-06-01T04:16:53.134Z,20.08
2016-06-01T04:18:07.076Z,20.03
2016-06-01T04:18:53.530Z,19.98
2016-06-01T04:20:06.770Z,20.05
2016-06-01T04:20:53.707Z,20.06
2016-06-01T04:21:53.428Z,20.02
2016-06-01T04:24:53.389Z,20
2016-06-01T04:25:52.938Z,20
2016-06-01T04:26:53.005Z,20.08
2016-06-01T04:27:52.929Z,20.09
2016-06-01T04:30:06.859Z,20.13
2016-06-01T04:30:55.173Z,20.03
2016-06-01T04:31:52.829Z,20.1
2016-06-01T04:33:06.695Z,19.98
2016-06-01T04:33:52.898Z,20.1
2016-06-01T04:34:52.916Z,20.12
2016-06-01T04:35:55.312Z,20.1
2016-06-01T04:36:52.624Z,20.09
2016-06-01T04:37:53.252Z,20.1
2016-06-01T04:38:54.287Z,20.12
2016-06-01T04:39:53.415Z,20.12
2016-06-01T04:41:06.232Z,20.12
2016-06-01T04:42:06.469Z,20.1
2016-06-01T04:43:06.690Z,20.15
2016-06-01T04:45:06.367Z,20.15
2016-06-01T04:47:06.529Z,20.15
2016-06-01T04:48:19.969Z,20.16
2016-06-01T04:48:53.922Z,20.12
2016-06-01T04:49:52.754Z,20.15
2016-06-01T04:50:54.803Z,20.15
2016-06-01T04:51:52.539Z,20.12
2016-06-01T04:52:54.637Z,20.16
2016-06-01T04:53:55.280Z,20.15
2016-06-01T04:54:53.329Z,20.18
2016-06-01T04:55:52.661Z,20.15
2016-06-01T04:56:53.257Z,20.1
2016-06-01T04:57:53.103Z,20.13
2016-06-01T04:58:52.543Z,20.23
2016-06-01T05:02:05.960Z,20.15
2016-06-01T05:03:06.213Z,20.23
2016-06-01T05:04:05.904Z,20.21
2016-06-01T05:05:06.171Z,20.25
2016-06-01T05:05:52.202Z,20.3
2016-06-01T05:06:52.768Z,20.31
2016-06-01T05:08:06.680Z,20.21
2016-06-01T05:09:06.105Z,20.24
2016-06-01T05:10:05.841Z,20.3
2016-06-01T05:11:05.828Z,20.27
2016-06-01T05:11:52.281Z,20.3
2016-06-01T05:12:52.050Z,20.25
2016-06-01T05:13:55.615Z,20.28
2016-06-01T05:14:52.055Z,20.24
2016-06-01T05:15:52.870Z,20.28
2016-06-01T05:16:52.420Z,20.28
2016-06-01T05:18:05.581Z,20.33
2016-06-01T05:18:51.862Z,20.23
2016-06-01T05:19:51.897Z,20.28
2016-06-01T05:20:52.243Z,20.33
2016-06-01T05:22:53.577Z,20.27
2016-06-01T05:23:55.485Z,20.28
2016-06-01T05:24:54.301Z,20.3
2016-06-01T05:25:51.928Z,20.33
2016-06-01T05:26:52.213Z,20.28
2016-06-01T05:27:52.153Z,20.28
2016-06-01T05:29:05.346Z,20.28
2016-06-01T05:30:06.958Z,20.28
2016-06-01T05:30:52.036Z,20.28
2016-06-01T05:31:52.554Z,20.28
2016-06-01T05:32:51.932Z,20.28
2016-06-01T05:33:52.091Z,20.3
2016-06-01T05:34:52.077Z,20.28
2016-06-01T05:35:52.158Z,20.28
2016-06-01T05:36:52.661Z,20.28
2016-06-01T05:38:05.041Z,20.27
2016-06-01T05:38:52.979Z,20.3
2016-06-01T05:39:51.951Z,20.31
2016-06-01T05:40:54.828Z,20.24
2016-06-01T05:41:51.674Z,20.27
2016-06-01T05:42:51.927Z,20.25
2016-06-01T05:44:05.401Z,20.33
2016-06-01T05:44:52.089Z,20.31
2016-06-01T05:46:05.345Z,20.28
2016-06-01T05:46:51.563Z,20.27
2016-06-01T05:47:51.862Z,20.34
2016-06-01T05:48:51.756Z,20.27
2016-06-01T05:50:05.028Z,20.39
2016-06-01T05:50:51.262Z,20.41
2016-06-01T05:51:51.889Z,20.34
2016-06-01T05:53:05.003Z,20.38
2016-06-01T05:55:04.884Z,20.38
2016-06-01T05:55:51.712Z,20.39
2016-06-01T05:56:51.590Z,20.39
2016-06-01T05:57:51.139Z,20.49
2016-06-01T05:58:51.049Z,20.42
2016-06-01T05:59:51.161Z,20.54
2016-06-01T06:00:51.789Z,20.42
2016-06-01T06:01:51.260Z,20.38
2016-06-01T06:02:51.356Z,20.5
2016-06-01T06:03:51.359Z,20.59
2016-06-01T06:06:04.601Z,20.54
2016-06-01T06:06:50.991Z,20.51
2016-06-01T06:08:50.826Z,20.58
2016-06-01T06:09:50.749Z,20.56
2016-06-01T06:10:53.534Z,20.68
2016-06-01T06:11:51.943Z,20.66
2016-06-01T06:12:51.102Z,20.64
2016-06-01T06:14:04.513Z,20.64
2016-06-01T06:14:52.123Z,20.68
2016-06-01T06:16:04.768Z,20.62
2016-06-01T06:16:51.159Z,20.66
2016-06-01T06:18:04.320Z,20.68
2016-06-01T06:18:51.477Z,20.64
2016-06-01T06:19:50.745Z,20.66
2016-06-01T06:20:53.983Z,20.68
2016-06-01T06:21:51.860Z,20.66
2016-06-01T06:22:50.706Z,20.72
2016-06-01T06:23:52.085Z,20.69
2016-06-01T06:24:51.931Z,20.69
2016-06-01T06:25:54.622Z,20.71
2016-06-01T06:26:51.842Z,20.69
2016-06-01T06:27:50.814Z,20.72
2016-06-01T06:29:04.273Z,20.65
2016-06-01T06:29:52.508Z,20.69
2016-06-01T06:30:55.056Z,20.72
2016-06-01T06:31:50.777Z,20.68
2016-06-01T06:32:50.515Z,20.69
2016-06-01T06:33:50.486Z,20.68
2016-06-01T06:34:50.942Z,20.68
2016-06-01T06:35:53.336Z,20.66
2016-06-01T06:36:50.401Z,20.69
2016-06-01T06:37:51.638Z,20.68
2016-06-01T06:38:51.031Z,20.71
2016-06-01T06:39:51.705Z,20.68
2016-06-01T06:40:54.115Z,20.72
2016-06-01T06:43:50.201Z,20.71
2016-06-01T06:44:50.860Z,20.71
2016-06-01T06:45:52.753Z,20.66
2016-06-01T06:46:50.271Z,20.74
2016-06-01T06:47:50.899Z,20.69
2016-06-01T06:48:50.198Z,20.77
2016-06-01T06:49:50.764Z,20.69
2016-06-01T06:50:51.782Z,20.71
2016-06-01T06:51:50.598Z,20.68
2016-06-01T06:53:03.680Z,20.71
2016-06-01T06:53:54.164Z,20.77
2016-06-01T06:55:03.717Z,20.71
2016-06-01T06:55:51.452Z,20.69
2016-06-01T06:56:50.283Z,20.74
2016-06-01T06:57:50.676Z,20.74
2016-06-01T06:58:50.539Z,20.83
2016-06-01T06:59:50.806Z,20.89
2016-06-01T07:00:53.152Z,20.87
2016-06-01T07:01:50.421Z,20.87
2016-06-01T07:03:03.895Z,20.95
2016-06-01T07:04:03.539Z,20.93
2016-06-01T07:04:49.648Z,20.86
2016-06-01T07:06:50.216Z,20.84
2016-06-01T07:07:49.968Z,20.81
2016-06-01T07:08:52.159Z,20.93
2016-06-01T07:09:49.958Z,20.93
2016-06-01T07:10:54.133Z,20.83
2016-06-01T07:11:50.495Z,20.91
2016-06-01T07:12:49.576Z,20.93
2016-06-01T07:13:50.782Z,20.84
2016-06-01T07:15:54.256Z,20.84
2016-06-01T07:16:49.461Z,20.84
2016-06-01T07:17:49.652Z,20.84
2016-06-01T07:18:49.560Z,20.89
2016-06-01T07:19:49.501Z,20.89
2016-06-01T07:20:50.301Z,20.9
2016-06-01T07:21:50.193Z,20.96
2016-06-01T07:23:49.417Z,20.91
2016-06-01T07:24:50.733Z,20.96
2016-06-01T07:25:49.251Z,20.91
2016-06-01T07:27:50.834Z,20.93
2016-06-01T07:28:49.275Z,20.83
2016-06-01T07:29:49.700Z,20.91
2016-06-01T07:30:54.530Z,20.99
2016-06-01T07:31:49.205Z,20.89
2016-06-01T07:33:02.895Z,21.02
2016-06-01T07:34:02.945Z,20.84
2016-06-01T07:34:52.197Z,20.86
2016-06-01T07:35:49.294Z,20.93
2016-06-01T07:38:49.160Z,20.9
2016-06-01T07:39:49.445Z,20.91
2016-06-01T07:40:50.682Z,20.95
2016-06-01T07:41:49.919Z,20.9
2016-06-01T07:44:48.896Z,20.87
2016-06-01T07:46:49.901Z,20.84
2016-06-01T07:47:50.670Z,20.91
2016-06-01T07:48:49.798Z,20.89
2016-06-01T07:49:50.238Z,20.84
2016-06-01T07:50:53.021Z,20.9
2016-06-01T07:51:50.228Z,20.87
2016-06-01T07:52:51.370Z,20.95
2016-06-01T07:54:49.829Z,20.9
2016-06-01T07:55:53.364Z,20.87
2016-06-01T07:56:49.053Z,20.81
2016-06-01T07:59:48.967Z,20.95
2016-06-01T08:00:55.049Z,21.01
2016-06-01T08:02:49.132Z,20.98
2016-06-01T08:05:02.403Z,20.93
2016-06-01T08:05:51.202Z,20.95
2016-06-01T08:06:48.986Z,20.89
2016-06-01T08:07:48.583Z,20.91
2016-06-01T08:08:52.649Z,20.95
2016-06-01T08:09:48.776Z,20.93
2016-06-01T08:10:51.450Z,20.95
2016-06-01T08:12:02.421Z,20.93
2016-06-01T08:13:02.643Z,20.93
2016-06-01T08:13:51.240Z,20.99
2016-06-01T08:14:48.555Z,20.95
2016-06-01T08:15:49.839Z,21.02
2016-06-01T08:17:01.935Z,20.96
2016-06-01T08:18:02.141Z,21.02
2016-06-01T08:18:48.628Z,21.01
2016-06-01T08:19:49.224Z,21.01
2016-06-01T08:21:49.434Z,21.01
2016-06-01T08:22:48.030Z,20.98
2016-06-01T08:23:50.876Z,20.96
2016-06-01T08:24:48.925Z,21.01
2016-06-01T08:25:51.241Z,21.01
2016-06-01T08:26:49.134Z,20.98
2016-06-01T08:27:48.356Z,21.06
2016-06-01T08:29:49.876Z,21.06
2016-06-01T08:30:52.067Z,21.04
2016-06-01T08:31:49.570Z,21.09
2016-06-01T08:32:48.931Z,21.05
2016-06-01T08:34:48.531Z,21.06
2016-06-01T08:35:50.314Z,21.08
2016-06-01T08:36:48.020Z,21.05
2016-06-01T08:37:48.023Z,21.06
2016-06-01T08:38:47.963Z,21.08
2016-06-01T08:40:50.360Z,21.02
2016-06-01T08:41:49.893Z,21.08
2016-06-01T08:43:01.615Z,21.05
2016-06-01T08:44:01.414Z,21.08
2016-06-01T08:45:15.232Z,21.05
2016-06-01T08:45:52.763Z,21.04
2016-06-01T08:46:48.391Z,21.04
2016-06-01T08:47:48.097Z,21.09
2016-06-01T08:48:47.569Z,21.06
2016-06-01T08:49:49.196Z,21.02
2016-06-01T08:50:50.854Z,21.01
2016-06-01T08:51:50.607Z,21.04
2016-06-01T08:52:49.423Z,21.01
2016-06-01T08:53:48.379Z,21.06
2016-06-01T08:54:50.351Z,21.04
2016-06-01T08:55:49.618Z,21.14
2016-06-01T08:56:48.918Z,21.04
2016-06-01T08:58:52.439Z,21.13
2016-06-01T09:00:08.054Z,21.06
2016-06-01T09:00:50.914Z,21.06
2016-06-01T09:01:48.806Z,21.02
2016-06-01T09:02:47.606Z,21.13
2016-06-01T09:03:48.375Z,21.02
2016-06-01T09:05:51.052Z,20.95
2016-06-01T09:06:47.992Z,21.06
2016-06-01T09:07:49.650Z,21.08
2016-06-01T09:08:49.481Z,21.06
2016-06-01T09:09:48.452Z,20.98
2016-06-01T09:10:47.643Z,21.04
2016-06-01T09:12:48.492Z,21.06
2016-06-01T09:13:47.855Z,20.99
2016-06-01T09:14:48.154Z,20.98
2016-06-01T09:15:48.267Z,20.98
2016-06-01T09:16:47.278Z,20.98
2016-06-01T09:17:47.399Z,20.99
2016-06-01T09:18:47.206Z,21.01
2016-06-01T09:20:01.047Z,21.02
2016-06-01T09:20:47.509Z,20.99
2016-06-01T09:21:47.412Z,21.01
2016-06-01T09:23:01.078Z,20.99
2016-06-01T09:24:01.356Z,20.96
2016-06-01T09:24:48.461Z,20.96
2016-06-01T09:25:49.425Z,20.98
2016-06-01T09:26:48.025Z,21.02
2016-06-01T09:27:47.406Z,20.99
2016-06-01T09:28:47.926Z,20.98
2016-06-01T09:29:47.292Z,20.99
2016-06-01T09:30:47.266Z,21.01
2016-06-01T09:31:48.035Z,20.99
2016-06-01T09:32:48.352Z,20.99
2016-06-01T09:33:48.263Z,21.02
2016-06-01T09:34:48.078Z,20.99
2016-06-01T09:36:00.629Z,20.99
2016-06-01T09:36:48.163Z,21.01
2016-06-01T09:37:49.244Z,21.06
2016-06-01T09:39:48.500Z,21.04
2016-06-01T09:40:48.128Z,21.02
2016-06-01T09:41:47.914Z,20.99
2016-06-01T09:48:00.587Z,21.08
2016-06-01T09:48:33.793Z,20.98
2016-06-01T09:49:33.451Z,20.98
2016-06-01T09:50:33.798Z,21.02
2016-06-01T09:51:33.254Z,21.02
2016-06-01T09:52:32.913Z,20.99
2016-06-01T09:53:34.056Z,21.01
2016-06-01T09:54:33.761Z,21.01
2016-06-01T09:55:46.578Z,21.02
2016-06-01T09:56:46.798Z,20.99
2016-06-01T09:57:33.301Z,20.99
